createdAt,value
2023-01-08T00:02:33.308Z,4.80
2023-01-08T00:08:35.108Z,5.30
2023-01-08T00:14:36.590Z,4.47
2023-01-08T00:20:41.086Z,4.88
2023-01-08T00:26:42.560Z,4.20
2023-01-08T00:32:44.071Z,4.13
2023-01-08T00:38:46.023Z,4.07
2023-01-08T00:44:47.528Z,4.28
2023-01-08T00:50:49.532Z,4.25
2023-01-08T00:56:50.988Z,4.60
2023-01-08T01:02:52.651Z,4.93
2023-01-08T01:08:54.174Z,4.83
2023-01-08T01:14:55.642Z,5.18
2023-01-08T01:20:57.148Z,4.80
2023-01-08T01:26:58.674Z,4.67
2023-01-08T01:33:00.157Z,4.80
2023-01-08T01:39:01.655Z,4.80
2023-01-08T01:45:14.893Z,4.78
2023-01-08T01:51:16.411Z,4.45
2023-01-08T01:57:18.260Z,4.50
2023-01-08T02:03:27.103Z,4.47
2023-01-08T02:09:42.063Z,4.80
2023-01-08T02:16:02.547Z,4.40
2023-01-08T02:22:42.397Z,4.38
2023-01-08T02:28:46.738Z,4.07
2023-01-08T02:34:48.174Z,4.30
2023-01-08T02:40:56.373Z,4.20
2023-01-08T02:46:59.321Z,4.20
2023-01-08T02:53:00.852Z,4.28
2023-01-08T02:59:03.376Z,4.20
2023-01-08T03:05:11.201Z,3.70
2023-01-08T03:11:14.598Z,3.90
2023-01-08T03:17:19.647Z,3.65
2023-01-08T03:23:21.943Z,3.80
2023-01-08T03:29:24.464Z,3.30
2023-01-08T03:35:27.215Z,3.20
2023-01-08T03:41:30.902Z,3.30
2023-01-08T03:47:33.492Z,3.00
2023-01-08T03:53:35.321Z,2.90
2023-01-08T03:59:36.766Z,2.70
2023-01-08T04:05:38.213Z,2.50
2023-01-08T04:11:39.706Z,2.70
2023-01-08T04:17:41.147Z,3.05
2023-01-08T04:23:42.598Z,2.58
2023-01-08T04:29:44.110Z,2.97
2023-01-08T04:35:45.645Z,2.70
2023-01-08T04:41:47.083Z,2.80
2023-01-08T04:47:48.588Z,2.80
2023-01-08T04:53:50.106Z,2.70
2023-01-08T04:59:51.575Z,3.10
2023-01-08T05:05:53.029Z,2.97
2023-01-08T05:11:54.489Z,2.90
2023-01-08T05:18:00.127Z,2.97
2023-01-08T05:24:01.667Z,2.40
2023-01-08T05:30:03.375Z,2.80
2023-01-08T05:36:09.209Z,2.42
2023-01-08T05:42:10.684Z,2.60
2023-01-08T05:48:12.206Z,2.70
2023-01-08T05:54:13.833Z,2.33
2023-01-08T06:00:15.465Z,2.60
2023-01-08T06:06:16.915Z,2.70
2023-01-08T06:12:18.700Z,2.70
2023-01-08T06:18:20.159Z,2.53
2023-01-08T06:24:21.635Z,2.70
2023-01-08T06:30:23.169Z,2.90
2023-01-08T06:36:24.687Z,3.00
2023-01-08T06:42:26.205Z,2.97
2023-01-08T06:48:27.938Z,3.13
2023-01-08T06:54:29.390Z,2.97
2023-01-08T07:00:30.950Z,2.83
2023-01-08T07:06:32.416Z,2.60
2023-01-08T07:12:33.874Z,3.20
2023-01-08T07:18:36.136Z,3.08
2023-01-08T07:24:37.642Z,3.17
2023-01-08T07:30:39.655Z,3.00
2023-01-08T07:36:41.679Z,3.33
2023-01-08T07:42:43.202Z,3.07
2023-01-08T07:48:44.849Z,3.00
2023-01-08T07:54:47.741Z,3.25
2023-01-08T08:00:49.300Z,3.10
2023-01-08T08:06:51.080Z,3.03
2023-01-08T08:12:52.534Z,3.00
2023-01-08T08:18:54.032Z,2.85
2023-01-08T08:24:55.490Z,3.17
2023-01-08T08:30:57.031Z,3.10
2023-01-08T08:36:58.710Z,3.40
2023-01-08T08:43:01.260Z,3.10
2023-01-08T08:49:02.738Z,3.50
2023-01-08T08:55:04.314Z,3.20
2023-01-08T09:01:05.825Z,3.80
2023-01-08T09:07:07.383Z,3.70
2023-01-08T09:13:09.372Z,3.83
2023-01-08T09:19:10.971Z,3.58
2023-01-08T09:25:12.416Z,4.00
2023-01-08T09:31:14.023Z,4.30
2023-01-08T09:37:15.569Z,3.67
2023-01-08T09:43:18.171Z,4.30
2023-01-08T09:49:22.250Z,3.90
2023-01-08T09:55:23.743Z,3.80
2023-01-08T10:01:45.898Z,4.00
2023-01-08T10:07:47.581Z,3.95
2023-01-08T10:13:53.901Z,3.63
2023-01-08T10:19:55.769Z,4.30
2023-01-08T10:25:58.562Z,4.03
2023-01-08T10:32:07.434Z,3.43
2023-01-08T10:38:24.200Z,3.70
2023-01-08T10:44:26.200Z,3.20
2023-01-08T10:50:29.258Z,3.67
2023-01-08T10:56:40.143Z,4.07
2023-01-08T11:02:41.627Z,3.50
2023-01-08T11:08:51.584Z,3.60
2023-01-08T11:14:53.238Z,3.70
2023-01-08T11:21:06.569Z,4.13
2023-01-08T11:27:26.792Z,4.30
2023-01-08T11:33:30.923Z,4.23
2023-01-08T11:39:34.538Z,4.43
2023-01-08T11:45:51.582Z,4.80
2023-01-08T11:52:05.733Z,4.40
2023-01-08T11:58:22.858Z,4.13
2023-01-08T12:04:34.483Z,4.67
2023-01-08T12:11:08.546Z,4.55
2023-01-08T12:17:28.595Z,4.40
2023-01-08T12:23:38.123Z,4.00
2023-01-08T12:29:45.717Z,4.47
2023-01-08T12:35:50.177Z,4.17
2023-01-08T12:41:53.299Z,4.32
2023-01-08T12:47:56.705Z,4.33
2023-01-08T12:53:58.144Z,3.75
2023-01-08T13:00:05.969Z,3.70
2023-01-08T13:06:13.343Z,3.50
2023-01-08T13:12:15.517Z,4.15
2023-01-08T13:18:18.495Z,3.70
2023-01-08T13:24:28.751Z,3.75
2023-01-08T13:30:40.523Z,3.60
2023-01-08T13:36:42.002Z,3.10
2023-01-08T13:42:43.494Z,2.58
2023-01-08T13:48:50.362Z,2.83
2023-01-08T13:54:52.817Z,2.72
2023-01-08T14:00:55.132Z,2.80
2023-01-08T14:07:15.367Z,2.63
2023-01-08T14:13:17.645Z,2.40
2023-01-08T14:19:21.058Z,2.20
2023-01-08T14:25:22.778Z,2.05
2023-01-08T14:31:26.524Z,1.80
2023-01-08T14:37:28.198Z,2.00
2023-01-08T14:43:32.457Z,1.90
2023-01-08T14:49:40.659Z,1.90
2023-01-08T14:55:44.294Z,1.95
2023-01-08T15:01:50.771Z,1.98
2023-01-08T15:07:58.052Z,1.80
2023-01-08T15:13:59.639Z,2.08
2023-01-08T15:20:01.868Z,2.20
2023-01-08T15:26:03.360Z,2.10
2023-01-08T15:32:13.935Z,2.30
2023-01-08T15:38:15.878Z,1.70
2023-01-08T15:44:17.334Z,2.10
2023-01-08T15:50:20.352Z,3.37
2023-01-08T15:56:21.834Z,2.25
2023-01-08T16:02:23.638Z,1.80
2023-01-08T16:08:25.188Z,2.27
2023-01-08T16:14:26.872Z,2.13
2023-01-08T16:20:28.489Z,2.43
2023-01-08T16:26:30.273Z,2.50
2023-01-08T16:32:31.842Z,2.78
2023-01-08T16:38:33.701Z,2.47
2023-01-08T16:44:36.018Z,2.70
2023-01-08T16:50:37.602Z,2.27
2023-01-08T16:56:39.181Z,1.92
2023-01-08T17:02:40.787Z,1.88
2023-01-08T17:08:43.085Z,2.00
2023-01-08T17:14:46.216Z,1.85
2023-01-08T17:20:54.728Z,1.90
2023-01-08T17:26:57.447Z,1.80
2023-01-08T17:32:59.373Z,2.25
2023-01-08T17:39:01.404Z,2.10
2023-01-08T17:45:05.607Z,2.10
2023-01-08T17:51:09.574Z,1.77
2023-01-08T17:57:11.715Z,1.90
2023-01-08T18:03:13.535Z,1.70
2023-01-08T18:09:15.312Z,1.80
2023-01-08T18:15:16.936Z,1.80
2023-01-08T18:21:19.654Z,1.80
2023-01-08T18:27:21.470Z,1.85
2023-01-08T18:33:23.203Z,1.30
2023-01-08T18:39:26.637Z,1.60
2023-01-08T18:45:29.511Z,1.85
2023-01-08T18:51:31.322Z,2.00
2023-01-08T18:57:33.085Z,1.90
2023-01-08T19:03:34.794Z,1.83
2023-01-08T19:09:36.674Z,3.10
2023-01-08T19:15:38.507Z,2.15
2023-01-08T19:21:40.287Z,2.30
2023-01-08T19:27:42.159Z,2.15
2023-01-08T19:33:44.662Z,2.58
2023-01-08T19:39:46.525Z,2.23
2023-01-08T19:45:48.412Z,2.70
2023-01-08T19:51:51.004Z,2.90
2023-01-08T19:57:54.449Z,2.60
2023-01-08T20:03:56.325Z,2.55
2023-01-08T20:09:58.109Z,2.47
2023-01-08T20:16:00.013Z,2.30
2023-01-08T20:22:01.778Z,3.20
2023-01-08T20:28:03.598Z,2.58
2023-01-08T20:34:06.761Z,2.78
2023-01-08T20:40:08.917Z,2.80
2023-01-08T20:46:13.737Z,2.80
2023-01-08T20:52:16.409Z,2.70
2023-01-08T20:58:18.620Z,2.65
2023-01-08T21:04:20.464Z,2.70
2023-01-08T21:10:22.161Z,2.50
2023-01-08T21:16:25.143Z,3.20
2023-01-08T21:22:26.664Z,2.67
2023-01-08T21:28:28.347Z,3.25
2023-01-08T21:34:30.009Z,3.17
2023-01-08T21:40:31.591Z,2.60
2023-01-08T21:46:33.102Z,3.17
2023-01-08T21:52:53.135Z,3.60
2023-01-08T21:58:54.645Z,4.53
2023-01-08T22:04:56.566Z,4.00
2023-01-08T22:10:58.817Z,3.53
2023-01-08T22:17:01.473Z,3.40
2023-01-08T22:23:03.708Z,4.00
2023-01-08T22:29:08.326Z,3.75
2023-01-08T22:35:09.870Z,3.58
2023-01-08T22:41:15.895Z,3.40
2023-01-08T22:47:17.346Z,3.38
2023-01-08T22:53:19.207Z,3.43
2023-01-08T22:59:21.219Z,3.33
2023-01-08T23:05:22.746Z,3.63
2023-01-08T23:11:25.044Z,3.73
2023-01-08T23:17:26.724Z,4.05
2023-01-08T23:23:28.282Z,3.70
2023-01-08T23:29:31.965Z,3.90
2023-01-08T23:35:33.464Z,4.13
2023-01-08T23:41:35.424Z,3.90
2023-01-08T23:47:36.988Z,3.78
2023-01-08T23:53:38.497Z,4.40
2023-01-08T23:59:40.023Z,4.03
